createdAt,value
2023-03-08T00:01:18.827Z,8.40
2023-03-08T00:03:46.433Z,7.80
2023-03-08T00:06:15.762Z,7.78
2023-03-08T00:08:43.677Z,9.38
2023-03-08T00:11:12.714Z,6.35
2023-03-08T00:52:12.073Z,18.25
2023-03-08T00:54:38.951Z,14.20
2023-03-08T00:57:05.642Z,12.13
2023-03-08T00:59:32.429Z,10.18
2023-03-08T01:02:00.624Z,5.03
2023-03-08T01:04:27.347Z,8.23
2023-03-08T01:06:54.073Z,11.38
2023-03-08T01:09:20.880Z,19.50
2023-03-08T01:11:47.587Z,8.70
2023-03-08T01:14:14.404Z,12.55
2023-03-08T01:16:41.356Z,9.93
2023-03-08T01:19:07.979Z,15.25
2023-03-08T01:21:34.611Z,15.73
2023-03-08T01:24:01.307Z,14.65
2023-03-08T01:26:28.252Z,9.40
2023-03-08T01:28:54.956Z,10.30
2023-03-08T01:31:24.388Z,16.52
2023-03-08T01:33:51.773Z,13.23
2023-03-08T01:36:21.482Z,15.43
2023-03-08T01:38:49.065Z,16.95
2023-03-08T01:41:28.259Z,15.48
2023-03-08T01:43:55.523Z,15.20
2023-03-08T01:46:25.351Z,15.95
2023-03-08T01:49:30.288Z,15.48
2023-03-08T01:52:12.015Z,21.67
2023-03-08T01:54:47.089Z,17.85
2023-03-08T01:57:22.776Z,23.25
2023-03-08T01:59:51.670Z,18.05
2023-03-08T02:02:28.351Z,17.30
2023-03-08T02:04:55.151Z,17.85
2023-03-08T02:07:21.843Z,16.33
2023-03-08T02:09:49.576Z,19.75
2023-03-08T02:12:16.295Z,16.67
2023-03-08T02:14:44.122Z,20.27
2023-03-08T02:17:11.617Z,20.02
2023-03-08T02:19:46.571Z,21.92
2023-03-08T02:22:15.477Z,21.20
2023-03-08T02:24:42.698Z,25.88
2023-03-08T02:27:21.505Z,21.88
2023-03-08T02:29:48.137Z,23.80
2023-03-08T02:32:15.821Z,19.25
2023-03-08T02:34:42.707Z,22.33
2023-03-08T02:37:09.413Z,19.95
2023-03-08T02:39:36.160Z,19.52
2023-03-08T02:42:03.165Z,28.45
2023-03-08T02:44:29.758Z,26.67
2023-03-08T02:46:56.409Z,25.27
2023-03-08T02:49:23.058Z,22.38
2023-03-08T02:51:49.702Z,24.25
2023-03-08T02:54:17.091Z,24.60
2023-03-08T02:56:43.858Z,27.10
2023-03-08T02:59:10.516Z,28.17
2023-03-08T03:01:37.344Z,28.40
2023-03-08T03:04:04.056Z,30.92
2023-03-08T03:06:30.836Z,30.90
2023-03-08T03:08:57.542Z,26.98
2023-03-08T03:11:24.477Z,29.00
2023-03-08T03:13:59.450Z,26.85
2023-03-08T03:16:26.989Z,35.08
2023-03-08T03:18:54.721Z,30.67
2023-03-08T03:21:21.749Z,28.52
2023-03-08T03:23:48.486Z,31.50
2023-03-08T03:26:21.660Z,38.75
2023-03-08T03:28:49.386Z,30.10
2023-03-08T03:31:18.449Z,29.60
2023-03-08T03:33:45.661Z,33.28
2023-03-08T03:36:15.104Z,35.38
2023-03-08T03:38:42.261Z,33.65
2023-03-08T03:41:12.971Z,34.55
2023-03-08T03:43:40.212Z,39.67
2023-03-08T03:46:09.411Z,32.13
2023-03-08T03:48:36.537Z,42.20
2023-03-08T03:51:07.904Z,39.35
2023-03-08T03:53:36.310Z,45.90
2023-03-08T03:56:15.456Z,40.47
2023-03-08T03:58:42.649Z,44.25
2023-03-08T04:01:12.466Z,44.75
2023-03-08T04:03:39.298Z,50.67
2023-03-08T04:06:12.845Z,50.13
2023-03-08T04:08:42.658Z,48.65
2023-03-08T04:11:10.689Z,41.78
2023-03-08T04:13:37.860Z,46.83
2023-03-08T04:16:16.491Z,56.08
2023-03-08T04:18:43.817Z,60.03
2023-03-08T04:21:11.224Z,71.57
2023-03-08T04:23:38.540Z,54.53
2023-03-08T04:26:06.197Z,55.97
2023-03-08T04:28:36.426Z,68.45
2023-03-08T04:31:13.361Z,68.45
2023-03-08T04:33:40.293Z,70.38
2023-03-08T04:36:07.698Z,57.00
2023-03-08T04:38:34.574Z,58.85
2023-03-08T04:41:13.277Z,67.15
2023-03-08T04:43:48.910Z,67.38
2023-03-08T04:46:17.473Z,50.72
2023-03-08T04:48:44.748Z,65.03
2023-03-08T04:51:13.140Z,66.40
2023-03-08T04:53:41.492Z,36.67
2023-03-08T04:56:08.613Z,87.93
2023-03-08T04:58:36.942Z,68.13
2023-03-08T05:01:15.513Z,68.57
2023-03-08T05:03:42.930Z,95.75
2023-03-08T05:06:10.198Z,56.55
2023-03-08T05:08:37.305Z,148.80
2023-03-08T05:11:04.898Z,86.20
2023-03-08T05:13:36.618Z,25.52
2023-03-08T05:16:05.038Z,54.20
2023-03-08T05:18:32.113Z,71.20
2023-03-08T05:21:00.834Z,65.40
2023-03-08T05:23:28.837Z,104.10
2023-03-08T05:26:00.957Z,98.00
2023-03-08T05:28:30.604Z,135.77
2023-03-08T05:31:03.662Z,85.78
2023-03-08T05:33:30.650Z,103.28
2023-03-08T05:35:57.546Z,115.43
2023-03-08T05:38:25.128Z,132.68
2023-03-08T05:40:52.333Z,143.60
2023-03-08T05:43:19.976Z,154.38
2023-03-08T05:46:02.339Z,160.52
2023-03-08T05:48:30.936Z,140.10
2023-03-08T05:50:58.120Z,237.02
2023-03-08T05:53:25.252Z,102.32
2023-03-08T05:55:51.949Z,177.63
2023-03-08T05:58:18.590Z,94.88
2023-03-08T06:00:45.269Z,65.53
2023-03-08T06:03:11.883Z,145.63
2023-03-08T06:05:38.602Z,99.10
2023-03-08T06:08:05.736Z,38.00
2023-03-08T06:10:32.491Z,88.30
2023-03-08T06:12:59.146Z,159.40
2023-03-08T06:22:24.184Z,214.48
2023-03-08T06:24:50.923Z,228.35
2023-03-08T06:27:17.809Z,118.57
2023-03-08T06:29:44.625Z,141.27
2023-03-08T06:32:11.346Z,97.00
2023-03-08T06:34:38.221Z,91.10
2023-03-08T06:37:04.940Z,86.68
2023-03-08T06:39:31.729Z,98.20
2023-03-08T06:41:58.512Z,84.95
2023-03-08T06:44:25.298Z,89.40
2023-03-08T06:46:52.044Z,69.60
2023-03-08T06:49:18.669Z,72.05
2023-03-08T06:51:45.514Z,41.65
2023-03-08T06:54:17.271Z,76.40
2023-03-08T06:56:45.364Z,65.53
2023-03-08T06:59:15.529Z,43.13
2023-03-08T07:01:42.238Z,73.47
2023-03-08T07:07:59.591Z,52.13
2023-03-08T07:10:26.445Z,72.60
2023-03-08T07:12:53.284Z,72.00
2023-03-08T07:15:22.373Z,73.78
2023-03-08T07:17:50.921Z,54.50
2023-03-08T07:20:19.941Z,55.63
2023-03-08T07:22:46.748Z,56.38
2023-03-08T07:25:18.913Z,49.15
2023-03-08T07:27:45.954Z,46.05
2023-03-08T07:30:14.770Z,47.35
2023-03-08T07:32:43.157Z,47.72
2023-03-08T07:35:12.289Z,45.10
2023-03-08T07:37:39.074Z,50.63
2023-03-08T07:40:07.264Z,46.10
2023-03-08T07:42:33.914Z,41.92
2023-03-08T07:48:55.382Z,41.25
2023-03-08T07:51:22.616Z,45.20
2023-03-08T07:53:49.376Z,34.47
2023-03-08T07:56:16.135Z,44.45
2023-03-08T07:58:42.811Z,37.42
2023-03-08T08:01:12.103Z,38.50
2023-03-08T08:03:39.056Z,41.03
2023-03-08T08:06:06.473Z,36.50
2023-03-08T08:08:35.210Z,35.97
2023-03-08T08:11:01.992Z,32.60
2023-03-08T08:13:28.778Z,36.05
2023-03-08T08:16:00.012Z,40.83
2023-03-08T08:18:27.240Z,40.95
2023-03-08T08:21:01.631Z,37.20
2023-03-08T08:23:28.778Z,43.92
2023-03-08T08:25:56.054Z,40.53
2023-03-08T08:28:24.101Z,41.90
2023-03-08T08:31:02.390Z,31.35
2023-03-08T08:33:30.197Z,36.50
2023-03-08T08:35:57.018Z,43.40
2023-03-08T08:38:24.732Z,32.58
2023-03-08T08:40:51.575Z,43.63
2023-03-08T08:43:18.733Z,40.13
2023-03-08T08:45:47.862Z,33.35
2023-03-08T08:48:15.154Z,32.90
2023-03-08T08:50:42.448Z,44.25
2023-03-08T08:53:10.267Z,45.08
2023-03-08T08:55:37.010Z,43.95
2023-03-08T08:58:04.986Z,50.50
2023-03-08T09:00:33.507Z,53.50
2023-03-08T09:03:01.297Z,41.50
2023-03-08T09:05:29.056Z,51.35
2023-03-08T09:07:58.379Z,40.00
2023-03-08T09:10:30.657Z,46.72
2023-03-08T09:12:58.983Z,35.22
2023-03-08T09:15:26.802Z,36.25
2023-03-08T09:17:53.897Z,41.40
2023-03-08T09:20:23.425Z,40.38
2023-03-08T09:22:50.836Z,41.38
2023-03-08T09:25:20.725Z,22.48
2023-03-08T09:27:52.459Z,38.72
2023-03-08T09:30:19.456Z,33.05
2023-03-08T09:32:46.237Z,35.85
2023-03-08T09:35:12.991Z,24.90
2023-03-08T09:37:39.612Z,28.08
2023-03-08T09:40:09.508Z,25.05
2023-03-08T09:42:38.161Z,25.75
2023-03-08T09:45:26.769Z,28.08
2023-03-08T09:48:17.980Z,24.13
2023-03-08T09:50:49.482Z,27.20
2023-03-08T09:53:28.264Z,28.45
2023-03-08T09:56:09.192Z,27.25
2023-03-08T09:58:43.714Z,23.73
2023-03-08T10:01:24.578Z,27.13
2023-03-08T10:04:01.412Z,18.33
2023-03-08T10:06:37.276Z,18.27
2023-03-08T10:09:30.480Z,22.02
2023-03-08T10:12:14.180Z,24.00
2023-03-08T10:14:51.408Z,20.83
2023-03-08T10:17:24.753Z,16.83
2023-03-08T10:20:06.651Z,17.20
2023-03-08T10:22:38.992Z,22.17
2023-03-08T10:25:28.644Z,20.67
2023-03-08T10:27:57.363Z,23.00
2023-03-08T10:30:36.657Z,15.15
2023-03-08T10:33:11.233Z,21.73
2023-03-08T10:38:15.536Z,15.50
2023-03-08T10:40:42.278Z,16.17
2023-03-08T10:43:25.038Z,16.05
2023-03-08T10:46:22.817Z,15.35
2023-03-08T10:48:49.597Z,21.58
2023-03-08T10:51:28.118Z,16.83
2023-03-08T10:54:00.673Z,15.13
2023-03-08T10:56:44.842Z,22.73
2023-03-08T10:59:22.052Z,12.60
2023-03-08T11:01:55.291Z,16.42
2023-03-08T11:04:24.669Z,12.52
2023-03-08T11:06:51.502Z,14.95
2023-03-08T11:09:23.454Z,14.30
2023-03-08T11:11:50.474Z,19.27
2023-03-08T11:14:17.159Z,17.10
2023-03-08T11:43:57.186Z,12.05
2023-03-08T11:46:30.411Z,14.45
2023-03-08T11:49:22.481Z,19.33
2023-03-08T11:52:26.725Z,13.40
2023-03-08T11:55:21.442Z,19.85
2023-03-08T11:57:56.793Z,46.60
2023-03-08T12:00:30.675Z,17.02
2023-03-08T12:03:02.704Z,20.20
2023-03-08T12:05:34.253Z,18.70
2023-03-08T12:08:36.879Z,11.55
2023-03-08T12:11:20.956Z,19.35
2023-03-08T12:13:53.415Z,18.50
2023-03-08T12:16:26.351Z,16.40
2023-03-08T12:19:01.912Z,16.83
2023-03-08T12:21:45.639Z,18.90
2023-03-08T12:24:30.867Z,16.08
2023-03-08T12:27:06.129Z,15.93
2023-03-08T12:29:49.887Z,13.73
2023-03-08T12:32:18.511Z,14.60
2023-03-08T12:34:47.569Z,26.45
2023-03-08T12:37:29.897Z,13.70
2023-03-08T12:40:08.290Z,13.05
2023-03-08T12:42:40.707Z,15.05
2023-03-08T12:45:26.165Z,16.33
2023-03-08T12:48:01.611Z,13.13
2023-03-08T12:50:29.092Z,12.23
2023-03-08T12:52:56.531Z,19.95
2023-03-08T12:55:31.893Z,19.83
2023-03-08T12:58:01.343Z,21.13
2023-03-08T13:00:38.657Z,19.15
2023-03-08T13:03:27.263Z,17.23
2023-03-08T13:05:54.145Z,21.23
2023-03-08T13:08:36.716Z,20.67
2023-03-08T13:11:10.354Z,19.45
2023-03-08T13:13:57.766Z,19.27
2023-03-08T13:16:36.768Z,20.02
2023-03-08T13:19:15.488Z,13.50
2023-03-08T13:21:58.971Z,20.48
2023-03-08T13:24:38.118Z,21.40
2023-03-08T13:27:14.243Z,13.82
2023-03-08T13:29:43.203Z,18.20
2023-03-08T13:32:21.943Z,20.13
2023-03-08T13:34:59.596Z,16.98
2023-03-08T13:37:28.476Z,16.90
2023-03-08T13:39:57.609Z,15.90
2023-03-08T13:42:28.771Z,13.23
2023-03-08T13:45:15.979Z,14.85
2023-03-08T13:47:45.882Z,15.25
2023-03-08T13:50:23.938Z,14.00
2023-03-08T13:52:50.995Z,14.68
2023-03-08T13:55:31.430Z,15.10
2023-03-08T13:57:58.609Z,19.20
2023-03-08T14:00:27.200Z,16.48
2023-03-08T14:02:54.596Z,20.92
2023-03-08T14:05:24.549Z,16.40
2023-03-08T14:08:05.639Z,22.33
2023-03-08T14:10:45.962Z,9.25
2023-03-08T14:13:24.600Z,18.48
2023-03-08T14:15:54.719Z,17.75
2023-03-08T14:18:24.328Z,13.63
2023-03-08T14:21:23.577Z,10.35
2023-03-08T14:23:53.351Z,20.13
2023-03-08T14:26:34.958Z,11.35
2023-03-08T14:29:13.166Z,13.57
2023-03-08T14:31:51.460Z,14.95
2023-03-08T14:34:25.705Z,20.48
2023-03-08T14:37:02.355Z,18.52
2023-03-08T14:39:30.619Z,21.35
2023-03-08T14:41:57.501Z,14.00
2023-03-08T14:44:28.066Z,11.45
2023-03-08T14:47:01.084Z,11.55
2023-03-08T14:49:29.047Z,19.00
2023-03-08T14:51:56.084Z,18.17
2023-03-08T14:54:34.708Z,15.32
2023-03-08T14:57:19.869Z,16.17
2023-03-08T14:59:47.037Z,17.70
2023-03-08T15:02:15.748Z,16.60
2023-03-08T15:04:43.864Z,19.77
2023-03-08T15:07:19.118Z,10.00
2023-03-08T15:09:47.564Z,14.55
2023-03-08T15:12:14.245Z,17.80
2023-03-08T15:14:40.992Z,21.35
2023-03-08T15:17:07.806Z,11.65
2023-03-08T15:19:34.683Z,11.50
2023-03-08T15:22:01.924Z,18.02
2023-03-08T15:24:28.613Z,16.85
2023-03-08T15:26:56.754Z,12.80
2023-03-08T15:29:29.188Z,17.13
2023-03-08T15:31:56.925Z,17.13
2023-03-08T15:34:26.204Z,20.17
2023-03-08T15:36:54.719Z,16.77
2023-03-08T15:39:21.647Z,16.48
2023-03-08T15:41:48.487Z,14.38
2023-03-08T15:44:16.321Z,17.38
2023-03-08T15:46:43.044Z,20.45
2023-03-08T15:49:10.381Z,20.05
2023-03-08T15:51:37.590Z,16.35
2023-03-08T15:54:05.694Z,15.13
2023-03-08T15:56:32.488Z,14.95
2023-03-08T15:58:59.238Z,17.98
2023-03-08T16:01:26.904Z,16.85
2023-03-08T16:03:55.228Z,21.48
2023-03-08T16:06:22.927Z,16.27
2023-03-08T16:08:49.838Z,20.83
2023-03-08T16:11:21.143Z,17.13
2023-03-08T16:13:52.770Z,18.15
2023-03-08T16:16:20.523Z,20.67
2023-03-08T16:18:48.457Z,18.50
2023-03-08T16:21:15.261Z,22.10
2023-03-08T16:23:41.988Z,20.40
2023-03-08T16:26:16.377Z,19.02
2023-03-08T16:28:45.303Z,17.65
2023-03-08T16:31:12.585Z,16.75
2023-03-08T16:33:42.371Z,15.27
2023-03-08T16:36:09.283Z,18.30
2023-03-08T16:38:36.091Z,9.88
2023-03-08T16:45:26.205Z,14.15
2023-03-08T16:47:53.011Z,21.55
2023-03-08T16:50:19.999Z,21.75
2023-03-08T16:52:46.921Z,19.95
2023-03-08T16:55:13.773Z,17.63
2023-03-08T16:57:40.734Z,21.42
2023-03-08T17:00:11.973Z,22.42
2023-03-08T17:02:38.961Z,18.30
2023-03-08T17:05:06.433Z,30.13
2023-03-08T17:22:37.076Z,23.42
2023-03-08T17:25:04.008Z,24.48
2023-03-08T17:27:30.880Z,19.00
2023-03-08T17:29:58.650Z,23.92
2023-03-08T17:32:25.483Z,25.00
2023-03-08T17:34:52.180Z,25.45
2023-03-08T17:37:19.101Z,22.33
2023-03-08T17:39:45.771Z,23.45
2023-03-08T17:42:12.505Z,19.67
2023-03-08T17:44:39.291Z,22.38
2023-03-08T17:47:06.090Z,23.60
2023-03-08T17:49:33.389Z,22.17
2023-03-08T17:52:00.207Z,24.45
2023-03-08T17:54:26.848Z,21.25
2023-03-08T17:56:53.657Z,32.25
2023-03-08T17:59:20.401Z,28.92
2023-03-08T18:01:47.037Z,29.17
2023-03-08T18:04:13.794Z,29.15
2023-03-08T18:06:42.941Z,24.23
2023-03-08T18:09:16.752Z,24.55
2023-03-08T18:11:43.555Z,24.97
2023-03-08T18:14:13.211Z,27.45
2023-03-08T18:16:40.313Z,29.95
2023-03-08T18:19:07.483Z,28.05
2023-03-08T18:21:35.519Z,26.33
2023-03-08T18:24:05.404Z,27.40
2023-03-08T18:26:32.561Z,28.13
2023-03-08T18:28:59.305Z,25.15
2023-03-08T18:31:26.728Z,32.08
2023-03-08T18:33:55.307Z,27.05
2023-03-08T18:36:22.769Z,28.80
2023-03-08T18:38:52.527Z,24.98
2023-03-08T18:41:27.218Z,23.60
2023-03-08T18:43:55.231Z,26.48
2023-03-08T18:46:29.539Z,29.40
2023-03-08T18:49:09.328Z,26.60
2023-03-08T18:51:38.223Z,23.65
2023-03-08T18:54:05.746Z,22.58
2023-03-08T18:56:32.623Z,34.72
2023-03-08T18:59:01.722Z,26.45
2023-03-08T19:01:30.561Z,24.63
2023-03-08T19:04:00.363Z,32.47
2023-03-08T19:06:27.581Z,30.02
2023-03-08T19:08:54.173Z,30.13
2023-03-08T19:11:26.251Z,32.17
2023-03-08T19:13:53.190Z,29.15
2023-03-08T19:16:23.770Z,27.58
2023-03-08T19:18:53.305Z,25.75
2023-03-08T19:21:31.988Z,19.58
2023-03-08T19:23:59.677Z,31.20
2023-03-08T19:26:38.201Z,35.67
2023-03-08T19:29:22.520Z,30.02
2023-03-08T19:31:50.723Z,27.48
2023-03-08T19:34:18.276Z,24.38
2023-03-08T19:36:46.561Z,30.00
2023-03-08T19:39:16.543Z,28.77
2023-03-08T19:41:43.965Z,27.50
2023-03-08T19:44:10.715Z,24.30
2023-03-08T19:46:38.571Z,31.77
2023-03-08T19:49:06.936Z,30.58
2023-03-08T19:51:34.149Z,32.10
2023-03-08T19:54:01.146Z,28.30
2023-03-08T19:56:27.793Z,31.88
2023-03-08T19:58:57.392Z,30.45
2023-03-08T20:01:24.200Z,24.10
2023-03-08T20:03:50.995Z,16.70
2023-03-08T20:06:33.060Z,32.00
2023-03-08T20:09:01.855Z,22.73
2023-03-08T20:11:28.963Z,29.98
2023-03-08T20:13:55.830Z,29.70
2023-03-08T20:16:23.864Z,22.48
2023-03-08T20:18:51.581Z,35.60
2023-03-08T20:21:19.744Z,26.52
2023-03-08T20:23:47.911Z,21.95
2023-03-08T20:26:14.698Z,32.67
2023-03-08T20:28:41.706Z,32.50
2023-03-08T20:31:10.139Z,29.27
2023-03-08T20:33:36.923Z,32.53
2023-03-08T20:36:04.540Z,37.80
2023-03-08T20:38:31.650Z,34.28
2023-03-08T20:41:09.648Z,24.23
2023-03-08T20:43:36.404Z,19.40
2023-03-08T20:46:09.140Z,36.65
2023-03-08T20:48:38.005Z,17.00
2023-03-08T20:54:57.037Z,31.60
2023-03-08T20:57:23.832Z,39.25
2023-03-08T20:59:50.587Z,12.88
2023-03-08T21:02:17.389Z,38.30
2023-03-08T21:04:53.202Z,28.95
2023-03-08T21:07:21.632Z,38.92
2023-03-08T21:25:21.880Z,39.20
2023-03-08T21:27:48.509Z,34.03
2023-03-08T21:30:15.294Z,34.10
2023-03-08T21:32:41.980Z,30.40
2023-03-08T21:35:09.815Z,37.60
2023-03-08T21:41:33.916Z,35.38
2023-03-08T21:44:09.232Z,38.95
2023-03-08T21:46:37.681Z,41.30
2023-03-08T21:49:05.352Z,35.70
2023-03-08T21:51:33.526Z,38.33
2023-03-08T21:54:00.643Z,44.80
2023-03-08T21:56:27.356Z,35.50
2023-03-08T21:58:55.033Z,41.97
2023-03-08T22:01:26.064Z,42.22
2023-03-08T22:03:54.358Z,39.08
2023-03-08T22:06:22.106Z,39.15
2023-03-08T22:08:49.345Z,38.38
2023-03-08T22:11:16.711Z,44.08
2023-03-08T22:13:44.054Z,42.80
2023-03-08T22:16:10.743Z,41.83
2023-03-08T22:18:37.460Z,43.25
2023-03-08T22:21:04.831Z,40.00
2023-03-08T22:23:32.301Z,42.78
2023-03-08T22:25:59.009Z,50.63
2023-03-08T22:28:25.734Z,47.50
2023-03-08T22:30:52.663Z,46.55
2023-03-08T22:33:20.589Z,42.83
2023-03-08T22:35:48.511Z,48.97
2023-03-08T22:38:18.181Z,54.67
2023-03-08T22:40:45.430Z,36.60
2023-03-08T22:43:12.089Z,47.42
2023-03-08T22:45:38.833Z,41.85
2023-03-08T22:48:06.767Z,43.38
2023-03-08T22:50:33.663Z,44.40
2023-03-08T22:53:00.350Z,39.05
2023-03-08T22:55:27.037Z,47.60
2023-03-08T22:57:53.682Z,44.13
2023-03-08T23:00:20.574Z,40.50
2023-03-08T23:02:48.087Z,36.88
2023-03-08T23:05:17.258Z,40.28
2023-03-08T23:07:43.841Z,44.78
2023-03-08T23:10:12.179Z,41.00
2023-03-08T23:12:39.280Z,43.97
2023-03-08T23:15:06.870Z,39.13
2023-03-08T23:17:33.853Z,38.53
2023-03-08T23:20:00.847Z,45.08
2023-03-08T23:22:27.811Z,36.38
2023-03-08T23:24:54.421Z,42.65
2023-03-08T23:27:21.078Z,33.88
2023-03-08T23:29:47.789Z,37.70
2023-03-08T23:32:14.578Z,36.80
2023-03-08T23:34:42.414Z,36.08
2023-03-08T23:37:09.164Z,42.05
2023-03-08T23:39:35.823Z,43.20
2023-03-08T23:42:02.461Z,34.25
2023-03-08T23:44:29.102Z,27.77
2023-03-08T23:46:55.695Z,37.50
2023-03-08T23:49:22.324Z,36.83
2023-03-08T23:51:48.976Z,40.53
2023-03-08T23:54:15.720Z,37.70
2023-03-08T23:56:43.264Z,36.00
2023-03-08T23:59:18.157Z,37.13
